This is the latest recevied weather packets stored in our database for station/object DB0DUS-10. If no packets are shown the sender has not sent any weather packets the latest 10 day(s).
| Time | Temp. | Humidity | Pressure | Rain* | Wind** | Luminosity | Snow |
|---|---|---|---|---|---|---|---|
| 1777529596 | 12.22° C | 32% | 1029.6 hPa | 0 mm | - | - | - |
| 1777529295 | 12.22° C | 33% | 1029.6 hPa | 0 mm | - | - | - |
| 1777528096 | 11.67° C | 35% | 1029.5 hPa | 0 mm | - | - | - |
| 1777527495 | 11.11° C | 35% | 1029.4 hPa | 0 mm | - | - | - |
| 1777526596 | 10.56° C | 36% | 1029.3 hPa | 0 mm | - | - | - |
| 1777525695 | 10° C | 38% | 1029.2 hPa | 0 mm | - | - | - |
| 1777525096 | 9.44° C | 39% | 1029.1 hPa | 0 mm | - | - | - |
| 1777523895 | 8.89° C | 43% | 1029 hPa | 0 mm | - | - | - |
| 1777523597 | 8.89° C | 43% | 1029.1 hPa | 0 mm | - | - | - |
| 1777522095 | 7.78° C | 49% | 1028.9 hPa | 0 mm | - | - | - |
| 1777520596 | 7.78° C | 52% | 1028.7 hPa | 0 mm | - | - | - |
| 1777520295 | 7.78° C | 53% | 1028.7 hPa | 0 mm | - | - | - |
| 1777519096 | 7.78° C | 54% | 1028.8 hPa | 0 mm | - | - | - |
| 1777518495 | 7.78° C | 55% | 1028.8 hPa | 0 mm | - | - | - |
| 1777517596 | 7.78° C | 56% | 1028.8 hPa | 0 mm | - | - | - |
| 1777516695 | 7.78° C | 56% | 1028.9 hPa | 0 mm | - | - | - |
| 1777516096 | 7.78° C | 56% | 1028.9 hPa | 0 mm | - | - | - |
| 1777514895 | 8.33° C | 56% | 1028.7 hPa | 0 mm | - | - | - |
| 1777514596 | 8.33° C | 56% | 1028.5 hPa | 0 mm | - | - | - |
| 1777513095 | 8.33° C | 57% | 1028.6 hPa | 0 mm | - | - | - |
| 1777511596 | 8.33° C | 57% | 1028.5 hPa | 0 mm | - | - | - |
| 1777511295 | 8.33° C | 57% | 1028.7 hPa | 0 mm | - | - | - |
| 1777510096 | 8.89° C | 56% | 1028.7 hPa | 0 mm | - | - | - |
| 1777509495 | 8.89° C | 54% | 1028.6 hPa | 0 mm | - | - | - |
| 1777508596 | 9.44° C | 53% | 1028.6 hPa | 0 mm | - | - | - |
* Rain latest hour (hover to see other rain measurements)
** Current wind speed in m/s (hover to see current wind gust speed)